Weather observations for the past three days for
San Juan, Luis Munoz Marin International Airport
Imperial (Metric)
Date Time (ast) Wind (mph) Vis. (mi.) Weather Sky Cond. Temperature (ºF) Relative Humidity Wind Chill (°F) Heat Index (°F) Pressure Precipitation (in)
Air Dwpt 6 hour altimeter (in) sea level (mb) 1 hr 3 hr 6 hr
Max. Min.
10 07:56 E 7 10.00 Partly Cloudy FEW032 SCT060 SCT085 82.4 71.6 70% 87 30.05 0.0
10 06:56 SE 5 10.00 Partly Cloudy FEW028 SCT060 SCT085 78.1 71.1 79% 80 30.04 1017.2
10 05:56 Calm 10.00 Partly Cloudy SCT028 SCT075 78.8 69.8 74% 81 30.03 0.0
10 04:56 SE 3 10.00 Partly Cloudy FEW028 SCT090 77 71.1 82% 79 30.01 1016.0 0.03
10 03:56 SE 3 10.00 Partly Cloudy FEW024 SCT080 77 71.6 83% 78 29.99 0.0
10 02:56 E 3 10.00 Partly Cloudy FEW024 SCT080 78.8 71.6 79% 82 29.99 0.0
10 01:56 SE 6 10.00 Partly Cloudy SCT024 SCT095 78.8 71.6 79% 82 30 0.0
10 00:56 E 8 10.00 Partly Cloudy SCT027 78.8 71.6 79% 82 30.01 0.0
09 23:56 SE 6 10.00 Partly Cloudy FEW030 SCT090 80.6 69.8 70% 84 30.02 0.0
09 22:56 E 10 10.00 Partly Cloudy FEW030 SCT090 80.1 70 71% 83 30.04 1016.9
09 21:56 E 17 10.00 Partly Cloudy SCT027 SCT037 80.6 71.6 74% 85 30.03 0.0
09 20:56 E 14 G 24 10.00 Partly Cloudy SCT024 80.6 71.6 74% 85 30.02 0.0
09 19:56 E 16 G 23 10.00 Partly Cloudy SCT028 SCT090 80.6 71.6 74% 85 30.01 0.0
09 18:56 E 10 10.00 Partly Cloudy FEW026 SCT039 SCT085 81 70 69% 84 29.99 1015.5
09 17:56 E 20 G 26 10.00 Partly Cloudy FEW028 SCT035 SCT090 82.4 71.6 70% 87 29.98 0.0
09 16:56 E 20 G 30 10.00 A Few Clouds FEW031 84 71.1 65% 89 29.97 1014.7
09 15:56 E 21 G 29 10.00 A Few Clouds and Breezy FEW037 84.9 69.1 59% 89 29.97 1014.8
09 14:56 NE 21 G 31 10.00 A Few Clouds and Breezy FEW037 86 69.8 59% 91 29.97 0.0
09 13:56 NE 23 G 31 10.00 A Few Clouds and Breezy FEW037 86 69.8 59% 91 29.99 0.0
09 12:56 E 22 G 28 10.00 Partly Cloudy and Breezy FEW038 SCT055 86 69.8 59% 91 30.01 0.0
09 11:56 NE 21 G 26 10.00 Partly Cloudy and Breezy FEW038 SCT060 86 69.8 59% 91 30.02 0.0
09 10:56 E 16 10.00 Partly Cloudy FEW034 SCT050 84.9 71.1 63% 90 30.04 1017.0
09 09:56 E 16 10.00 Partly Cloudy FEW036 SCT055 84.2 69.8 62% 88 30.04 0.0
09 08:56 E 16 G 22 10.00 Partly Cloudy FEW032 SCT065 84.2 69.8 62% 88 30.03 0.0
09 07:56 E 8 10.00 Partly Cloudy FEW032 SCT080 80.6 69.8 70% 84 30.02 0.0
09 06:56 SE 3 10.00 Partly Cloudy FEW034 SCT060 79 69.1 72% 82 30.01 1016.0
09 05:56 SE 3 10.00 Partly Cloudy SCT028 75.2 69.8 83% 75 29.99 0.0
09 04:56 SE 3 10.00 A Few Clouds FEW025 77 69.8 79% 79 29.97 0.0
09 03:56 SE 3 10.00 A Few Clouds FEW025 77 69.8 79% 79 29.97 0.0
09 02:56 SE 3 10.00 A Few Clouds FEW025 78.8 71.6 79% 82 29.97 0.0
09 01:56 E 5 10.00 Partly Cloudy SCT028 78.8 69.8 74% 81 29.98 0.0
09 00:56 E 6 10.00 Partly Cloudy FEW025 SCT050 78.8 71.6 79% 82 29.99 0.0
08 23:56 E 8 10.00 Partly Cloudy FEW025 SCT050 78.8 73.4 84% 82 30.01 0.0
08 22:56 E 9 10.00 Partly Cloudy SCT025 80.6 71.6 74% 85 30.01 0.0
08 21:56 E 12 10.00 Partly Cloudy SCT024 80.6 71.6 74% 85 30.01 0.0
08 20:56 E 12 10.00 Partly Cloudy SCT024 80.1 72 76% 84 30 1015.9
08 19:56 E 9 10.00 Partly Cloudy SCT024 80.6 71.6 74% 85 29.98 0.0
08 18:56 E 13 10.00 A Few Clouds FEW032 FEW043 80.6 71.6 74% 85 29.96 0.0
08 17:56 E 18 10.00 A Few Clouds FEW038 82.4 71.6 70% 87 29.94 0.0
08 16:56 E 18 10.00 A Few Clouds FEW038 84 72 67% 90 29.93 1013.3
08 15:56 E 21 10.00 A Few Clouds and Breezy FEW040 84.2 71.6 66% 90 29.93 0.0
08 14:56 E 21 10.00 A Few Clouds and Breezy FEW040 86 71.6 62% 92 29.94 0.0
08 13:56 NE 17 G 25 10.00 Partly Cloudy SCT038 87.1 72 87.1 81 61% 94 29.95 1014.1
08 12:56 E 17 G 26 10.00 Partly Cloudy SCT038 86 72 63% 92 29.97 1014.6
08 11:56 NE 16 10.00 Partly Cloudy SCT036 86 71.6 62% 92 29.98 0.0
08 10:56 NE 15 G 22 10.00 Partly Cloudy SCT035 87.8 71.6 59% 94 29.99 0.0
08 09:56 E 13 10.00 Partly Cloudy SCT035 84.9 69.1 59% 89 30 1015.8
08 08:56 E 10 10.00 A Few Clouds FEW032 82.4 68 62% 85 30.01 0.0
08 07:56 E 7 10.00 A Few Clouds FEW030 80.6 69.8 70% 84 30 0.0
08 06:56 Calm 10.00 Partly Cloudy SCT028 78.1 69.1 74% 80 29.99 1015.6
08 05:56 Calm 10.00 Partly Cloudy SCT028 77 69.8 79% 79 29.98 0.0
08 04:56 S 3 10.00 A Few Clouds FEW022 77 69.8 79% 79 29.98 0.0
08 03:56 Calm 10.00 Fair CLR 77 69.8 79% 79 29.97 0.0
08 02:56 Calm 10.00 A Few Clouds FEW025 77 69.8 79% 79 29.97 0.0
08 01:56 SE 3 10.00 A Few Clouds FEW025 78.8 71.6 79% 82 29.99 0.0
08 00:56 E 6 10.00 Partly Cloudy SCT025 78.8 71.6 79% 82 30 0.0
07 23:56 E 6 10.00 Partly Cloudy SCT027 80.6 71.6 74% 85 30.02 0.0
07 22:56 E 6 10.00 A Few Clouds FEW022 79 72 79% 82 30.04 1017.0
07 21:56 E 7 10.00 A Few Clouds FEW027 80.1 72 76% 84 30.02 1016.6
07 20:56 E 10 10.00 A Few Clouds FEW030 FEW045 80.6 73.4 79% 85 30.02 0.0
07 19:56 E 13 10.00 A Few Clouds FEW030 FEW045 80.6 73.4 79% 85 30.01 0.0
07 18:56 E 13 10.00 A Few Clouds FEW030 FEW050 80.6 73.4 79% 85 29.98 0.0
07 17:56 E 14 G 24 10.00 Partly Cloudy FEW030 SCT048 82.4 73.4 74% 88 29.97 0.0
07 16:56 E 21 10.00 Partly Cloudy and Breezy FEW032 SCT048 82.4 73.4 74% 88 29.96 0.0
07 15:56 E 21 10.00 Partly Cloudy and Breezy FEW032 SCT048 84.2 73.4 70% 91 29.96 0.0
07 14:56 E 23 10.00 Partly Cloudy and Breezy FEW037 SCT045 86 73.9 67% 94 29.97 1014.8
07 13:56 E 22 10.00 A Few Clouds and Breezy FEW037 86 73.4 66% 93 29.99 0.0
07 12:56 NE 17 10.00 Partly Cloudy FEW028 SCT044 87.8 73.4 62% 96 30.01 0.0
07 11:56 NE 17 10.00 Partly Cloudy FEW028 SCT040 87.8 73.4 62% 96 30.03 0.0
07 10:56 NE 15 10.00 Partly Cloudy FEW027 SCT041 87.8 73.4 62% 96 30.04 0.0
07 09:56 NE 16 10.00 Partly Cloudy FEW027 SCT036 SCT060 86 75.2 70% 95 30.05 0.0
07 08:56 E 9 10.00 Partly Cloudy SCT032 84.2 73.4 70% 91 30.03 0.0
Date Time (ast) Wind (mph) Vis. (mi.) Weather Sky Cond. Air Dwpt Max. Min. Relative Humidity Wind Chill (°F) Heat Index (°F) altimeter (in) sea level (mb) 1 hr 3 hr 6 hr
6 hour
Temperature (ºF) Pressure Precipitation (in)